Time,TemperatureF,DewpointF,PressureIn,WindDirection,WindDirectionDegrees,WindSpeedMPH,WindSpeedGustMPH,Humidity,HourlyPrecipIn,Conditions,Clouds,dailyrainin,SoftwareType,DateUTC
2013-05-07 00:22:00,61.0,42.0,29.92,NW,320,21.0,32.0,50,0.00,,,-99.99,,2013-05-07 07:22:00,
2013-05-07 00:31:00,61.0,42.0,29.92,NW,320,21.0,32.0,50,0.00,,,-99.99,,2013-05-07 07:31:00,
2013-05-07 01:21:00,60.0,41.0,29.93,NW,320,16.0,28.0,49,0.00,,,-99.99,,2013-05-07 08:21:00,
2013-05-07 01:31:00,60.0,41.0,29.93,NW,320,16.0,28.0,49,0.00,,,-99.99,,2013-05-07 08:31:00,
2013-05-07 01:41:00,60.0,41.0,29.93,NW,320,16.0,28.0,49,0.00,,,-99.99,,2013-05-07 08:41:00,
2013-05-07 01:42:00,60.0,41.0,29.92,NW,320,25.0,33.0,50,0.00,,,-99.99,,2013-05-07 08:42:00,
2013-05-07 02:22:00,60.0,41.0,29.92,NW,320,25.0,33.0,50,0.00,,,-99.99,,2013-05-07 09:22:00,
2013-05-07 02:33:00,60.0,41.0,29.92,NW,320,25.0,33.0,50,0.00,,,-99.99,,2013-05-07 09:33:00,
2013-05-07 02:42:00,59.0,41.0,29.91,NW,310,6.0,16.0,51,0.00,,,-99.99,,2013-05-07 09:42:00,
2013-05-07 03:23:00,59.0,41.0,29.91,NW,310,6.0,16.0,51,0.00,,,-99.99,,2013-05-07 10:23:00,
2013-05-07 03:32:00,59.0,41.0,29.91,NW,310,6.0,16.0,51,0.00,,,-99.99,,2013-05-07 10:32:00,
2013-05-07 03:42:00,60.0,42.0,29.90,NW,320,13.0,37.0,51,0.00,,,-99.99,,2013-05-07 10:42:00,
2013-05-07 04:22:00,60.0,42.0,29.90,NW,320,13.0,37.0,51,0.00,,,-99.99,,2013-05-07 11:22:00,
2013-05-07 04:32:00,60.0,42.0,29.90,NW,320,13.0,37.0,51,0.00,,,-99.99,,2013-05-07 11:32:00,
2013-05-07 04:42:00,59.0,40.0,29.89,NW,320,13.0,26.0,50,0.00,,,-99.99,,2013-05-07 11:42:00,
2013-05-07 05:21:00,59.0,40.0,29.89,NW,320,13.0,26.0,50,0.00,,,-99.99,,2013-05-07 12:21:00,
2013-05-07 05:32:00,59.0,40.0,29.89,NW,320,13.0,26.0,50,0.00,,,-99.99,,2013-05-07 12:32:00,
2013-05-07 05:42:00,59.0,41.0,29.89,NW,320,16.0,37.0,52,0.00,,,-99.99,,2013-05-07 12:42:00,
2013-05-07 06:21:00,59.0,41.0,29.89,NW,320,16.0,37.0,52,0.00,,,-99.99,,2013-05-07 13:21:00,
2013-05-07 06:32:00,59.0,41.0,29.89,NW,320,16.0,37.0,52,0.00,,,-99.99,,2013-05-07 13:32:00,
2013-05-07 06:42:00,60.0,43.0,29.92,NW,320,32.0,35.0,53,0.00,,,-99.99,,2013-05-07 13:42:00,
2013-05-07 07:21:00,60.0,43.0,29.92,NW,320,32.0,35.0,53,0.00,,,-99.99,,2013-05-07 14:21:00,
2013-05-07 07:31:00,60.0,43.0,29.92,NW,320,32.0,35.0,53,0.00,,,-99.99,,2013-05-07 14:31:00,
2013-05-07 07:42:00,61.0,45.0,29.93,NW,310,16.0,31.0,56,0.00,,,-99.99,,2013-05-07 14:42:00,
2013-05-07 08:21:00,61.0,45.0,29.93,NW,310,16.0,31.0,56,0.00,,,-99.99,,2013-05-07 15:21:00,
2013-05-07 08:33:00,61.0,45.0,29.93,NW,310,16.0,31.0,56,0.00,,,-99.99,,2013-05-07 15:33:00,
2013-05-07 11:21:00,68.0,41.0,29.96,WNW,290,6.0,13.0,37,0.00,,,-99.99,,2013-05-07 18:21:00,
2013-05-07 11:31:00,68.0,41.0,29.96,WNW,290,6.0,13.0,37,0.00,,,-99.99,,2013-05-07 18:31:00,
2013-05-07 11:41:00,68.0,41.0,29.96,WNW,290,6.0,13.0,37,0.00,,,-99.99,,2013-05-07 18:41:00,
2013-05-07 12:21:00,70.0,41.0,29.94,NW,310,2.0,14.0,35,0.00,,,-99.99,,2013-05-07 19:21:00,
2013-05-07 12:32:00,70.0,41.0,29.94,NW,310,2.0,14.0,35,0.00,,,-99.99,,2013-05-07 19:32:00,
2013-05-07 12:42:00,70.0,41.0,29.94,NW,310,2.0,14.0,35,0.00,,,-99.99,,2013-05-07 19:42:00,
2013-05-07 13:21:00,72.0,42.0,29.93,NW,310,24.0,50.0,34,0.00,,,-99.99,,2013-05-07 20:21:00,
2013-05-07 13:32:00,72.0,42.0,29.93,NW,310,24.0,50.0,34,0.00,,,-99.99,,2013-05-07 20:32:00,
2013-05-07 13:42:00,72.0,42.0,29.93,NW,310,24.0,50.0,34,0.00,,,-99.99,,2013-05-07 20:42:00,
2013-05-07 14:21:00,72.0,42.0,29.92,WNW,300,28.0,41.0,34,0.00,,,-99.99,,2013-05-07 21:21:00,
2013-05-07 14:32:00,72.0,42.0,29.92,WNW,300,28.0,41.0,34,0.00,,,-99.99,,2013-05-07 21:32:00,
2013-05-07 14:42:00,72.0,42.0,29.92,WNW,300,28.0,41.0,34,0.00,,,-99.99,,2013-05-07 21:42:00,
2013-05-07 15:22:00,73.0,41.0,29.90,WNW,300,3.0,19.0,31,0.00,,,-99.99,,2013-05-07 22:22:00,
2013-05-07 15:32:00,73.0,41.0,29.90,WNW,300,3.0,19.0,31,0.00,,,-99.99,,2013-05-07 22:32:00,
2013-05-07 15:42:00,73.0,41.0,29.90,WNW,300,3.0,19.0,31,0.00,,,-99.99,,2013-05-07 22:42:00,
2013-05-07 17:21:00,73.0,42.0,29.87,WNW,290,30.0,57.0,33,0.00,,,-99.99,,2013-05-08 00:21:00,
2013-05-07 17:32:00,73.0,42.0,29.87,WNW,290,30.0,57.0,33,0.00,,,-99.99,,2013-05-08 00:32:00,
2013-05-07 17:42:00,73.0,42.0,29.87,WNW,290,30.0,57.0,33,0.00,,,-99.99,,2013-05-08 00:42:00,
2013-05-07 18:21:00,71.0,44.0,29.87,WNW,290,24.0,50.0,38,0.00,,,-99.99,,2013-05-08 01:21:00,
2013-05-07 18:31:00,71.0,44.0,29.87,WNW,290,24.0,50.0,38,0.00,,,-99.99,,2013-05-08 01:31:00,
2013-05-07 18:42:00,71.0,44.0,29.87,WNW,290,24.0,50.0,38,0.00,,,-99.99,,2013-05-08 01:42:00,
2013-05-07 19:22:00,68.0,44.0,29.86,WNW,300,21.0,52.0,42,0.00,,,-99.99,,2013-05-08 02:22:00,
2013-05-07 19:31:00,68.0,44.0,29.86,WNW,300,21.0,52.0,42,0.00,,,-99.99,,2013-05-08 02:31:00,
2013-05-07 19:42:00,68.0,44.0,29.86,WNW,300,21.0,52.0,42,0.00,,,-99.99,,2013-05-08 02:42:00,
2013-05-07 19:43:00,66.0,46.0,29.88,NW,310,29.0,39.0,48,0.00,,,-99.99,,2013-05-08 02:43:00,
2013-05-07 20:21:00,66.0,46.0,29.88,NW,310,29.0,39.0,48,0.00,,,-99.99,,2013-05-08 03:21:00,
2013-05-07 20:32:00,66.0,46.0,29.88,NW,310,29.0,39.0,48,0.00,,,-99.99,,2013-05-08 03:32:00,
2013-05-07 21:22:00,65.0,45.0,29.90,NW,310,20.0,36.0,49,0.00,,,-99.99,,2013-05-08 04:22:00,
2013-05-07 21:33:00,65.0,45.0,29.90,NW,310,20.0,36.0,49,0.00,,,-99.99,,2013-05-08 04:33:00,
2013-05-07 21:42:00,65.0,45.0,29.90,NW,310,20.0,36.0,49,0.00,,,-99.99,,2013-05-08 04:42:00,
2013-05-07 22:22:00,64.0,45.0,29.92,NW,320,20.0,31.0,51,0.00,,,-99.99,,2013-05-08 05:22:00,
2013-05-07 22:32:00,64.0,45.0,29.92,NW,320,20.0,31.0,51,0.00,,,-99.99,,2013-05-08 05:32:00,
2013-05-07 22:42:00,64.0,45.0,29.92,NW,320,20.0,31.0,51,0.00,,,-99.99,,2013-05-08 05:42:00,
2013-05-07 23:21:00,63.0,46.0,29.93,NW,320,25.0,44.0,54,0.00,,,-99.99,,2013-05-08 06:21:00,
2013-05-07 23:32:00,63.0,46.0,29.93,NW,320,25.0,44.0,54,0.00,,,-99.99,,2013-05-08 06:32:00,
2013-05-07 23:41:00,63.0,46.0,29.93,NW,320,25.0,44.0,54,0.00,,,-99.99,,2013-05-08 06:41:00,